sensor_id;sensor_type;location;lat;lon;timestamp;P1;durP1;ratioP1;P2;durP2;ratioP2
77701;SDS011;66868;42.708;23.404;2023-04-10T00:00:30;9.25;;;8.27;;
77701;SDS011;66868;42.708;23.404;2023-04-10T00:02:56;8.52;;;7.63;;
77701;SDS011;66868;42.708;23.404;2023-04-10T00:05:22;7.25;;;6.43;;
77701;SDS011;66868;42.708;23.404;2023-04-10T00:07:48;7.90;;;6.28;;
77701;SDS011;66868;42.708;23.404;2023-04-10T00:10:13;7.55;;;6.82;;
77701;SDS011;66868;42.708;23.404;2023-04-10T00:12:39;6.55;;;5.95;;
77701;SDS011;66868;42.708;23.404;2023-04-10T00:15:04;6.30;;;5.72;;
77701;SDS011;66868;42.708;23.404;2023-04-10T00:17:30;5.65;;;5.18;;
77701;SDS011;66868;42.708;23.404;2023-04-10T00:19:56;5.97;;;5.40;;
77701;SDS011;66868;42.708;23.404;2023-04-10T00:22:23;5.82;;;5.32;;
77701;SDS011;66868;42.708;23.404;2023-04-10T00:24:48;5.45;;;4.93;;
77701;SDS011;66868;42.708;23.404;2023-04-10T00:27:14;5.82;;;5.40;;
77701;SDS011;66868;42.708;23.404;2023-04-10T00:29:39;5.78;;;5.25;;
77701;SDS011;66868;42.708;23.404;2023-04-10T00:32:04;6.18;;;5.57;;
77701;SDS011;66868;42.708;23.404;2023-04-10T00:34:30;5.45;;;4.95;;
77701;SDS011;66868;42.708;23.404;2023-04-10T00:36:56;5.50;;;5.10;;
77701;SDS011;66868;42.708;23.404;2023-04-10T00:39:23;6.20;;;5.70;;
77701;SDS011;66868;42.708;23.404;2023-04-10T00:41:48;6.13;;;5.50;;
77701;SDS011;66868;42.708;23.404;2023-04-10T00:44:13;6.70;;;5.97;;
77701;SDS011;66868;42.708;23.404;2023-04-10T00:46:39;5.50;;;5.10;;
77701;SDS011;66868;42.708;23.404;2023-04-10T00:49:05;6.05;;;5.55;;
77701;SDS011;66868;42.708;23.404;2023-04-10T00:51:31;5.75;;;5.25;;
77701;SDS011;66868;42.708;23.404;2023-04-10T00:53:56;6.20;;;5.70;;
77701;SDS011;66868;42.708;23.404;2023-04-10T00:56:25;8.68;;;6.15;;
77701;SDS011;66868;42.708;23.404;2023-04-10T00:58:50;6.60;;;5.63;;
77701;SDS011;66868;42.708;23.404;2023-04-10T01:01:16;6.25;;;5.65;;
77701;SDS011;66868;42.708;23.404;2023-04-10T01:03:41;6.65;;;6.05;;
77701;SDS011;66868;42.708;23.404;2023-04-10T01:06:25;6.20;;;5.60;;
77701;SDS011;66868;42.708;23.404;2023-04-10T01:11:54;7.18;;;6.53;;
77701;SDS011;66868;42.708;23.404;2023-04-10T01:17:03;7.55;;;6.75;;
77701;SDS011;66868;42.708;23.404;2023-04-10T01:19:47;8.15;;;7.28;;
77701;SDS011;66868;42.708;23.404;2023-04-10T01:22:33;6.90;;;6.22;;
77701;SDS011;66868;42.708;23.404;2023-04-10T01:25:18;6.90;;;6.32;;
77701;SDS011;66868;42.708;23.404;2023-04-10T01:28:00;6.75;;;6.15;;
77701;SDS011;66868;42.708;23.404;2023-04-10T01:30:35;6.95;;;6.35;;
77701;SDS011;66868;42.708;23.404;2023-04-10T01:33:01;9.23;;;7.57;;
77701;SDS011;66868;42.708;23.404;2023-04-10T01:35:29;7.43;;;6.82;;
77701;SDS011;66868;42.708;23.404;2023-04-10T01:37:58;7.40;;;6.80;;
77701;SDS011;66868;42.708;23.404;2023-04-10T01:40:26;7.97;;;7.22;;
77701;SDS011;66868;42.708;23.404;2023-04-10T01:42:54;7.75;;;7.05;;
77701;SDS011;66868;42.708;23.404;2023-04-10T01:45:22;9.50;;;8.60;;
77701;SDS011;66868;42.708;23.404;2023-04-10T01:47:52;8.40;;;7.28;;
77701;SDS011;66868;42.708;23.404;2023-04-10T01:50:18;11.07;;;7.93;;
77701;SDS011;66868;42.708;23.404;2023-04-10T01:52:45;8.57;;;7.78;;
77701;SDS011;66868;42.708;23.404;2023-04-10T01:55:11;11.70;;;8.90;;
77701;SDS011;66868;42.708;23.404;2023-04-10T01:57:37;9.20;;;8.27;;
77701;SDS011;66868;42.708;23.404;2023-04-10T02:00:03;11.20;;;8.90;;
77701;SDS011;66868;42.708;23.404;2023-04-10T02:02:29;9.57;;;8.48;;
77701;SDS011;66868;42.708;23.404;2023-04-10T02:04:56;10.85;;;8.35;;
77701;SDS011;66868;42.708;23.404;2023-04-10T02:13:20;11.63;;;9.00;;
77701;SDS011;66868;42.708;23.404;2023-04-10T02:15:46;10.30;;;8.50;;
77701;SDS011;66868;42.708;23.404;2023-04-10T02:18:14;11.05;;;9.88;;
77701;SDS011;66868;42.708;23.404;2023-04-10T02:20:42;10.50;;;9.20;;
77701;SDS011;66868;42.708;23.404;2023-04-10T02:23:08;10.73;;;8.82;;
77701;SDS011;66868;42.708;23.404;2023-04-10T02:25:34;11.77;;;9.10;;
77701;SDS011;66868;42.708;23.404;2023-04-10T02:28:05;11.45;;;9.00;;
77701;SDS011;66868;42.708;23.404;2023-04-10T02:30:32;9.23;;;8.32;;
77701;SDS011;66868;42.708;23.404;2023-04-10T02:32:58;9.68;;;8.25;;
77701;SDS011;66868;42.708;23.404;2023-04-10T02:35:23;10.07;;;8.27;;
77701;SDS011;66868;42.708;23.404;2023-04-10T02:37:50;8.38;;;7.43;;
77701;SDS011;66868;42.708;23.404;2023-04-10T02:40:15;10.02;;;7.40;;
77701;SDS011;66868;42.708;23.404;2023-04-10T02:42:41;8.18;;;7.20;;
77701;SDS011;66868;42.708;23.404;2023-04-10T02:45:07;7.70;;;6.80;;
77701;SDS011;66868;42.708;23.404;2023-04-10T02:47:33;8.93;;;8.02;;
77701;SDS011;66868;42.708;23.404;2023-04-10T02:49:59;8.20;;;7.43;;
77701;SDS011;66868;42.708;23.404;2023-04-10T02:52:24;7.95;;;6.93;;
77701;SDS011;66868;42.708;23.404;2023-04-10T02:54:50;9.20;;;8.15;;
77701;SDS011;66868;42.708;23.404;2023-04-10T02:57:15;11.20;;;7.80;;
77701;SDS011;66868;42.708;23.404;2023-04-10T02:59:41;8.00;;;7.18;;
77701;SDS011;66868;42.708;23.404;2023-04-10T03:02:07;8.77;;;7.78;;
77701;SDS011;66868;42.708;23.404;2023-04-10T03:04:33;8.80;;;8.00;;
77701;SDS011;66868;42.708;23.404;2023-04-10T03:06:58;17.98;;;11.60;;
77701;SDS011;66868;42.708;23.404;2023-04-10T03:09:24;28.42;;;15.73;;
77701;SDS011;66868;42.708;23.404;2023-04-10T03:11:49;35.65;;;18.17;;
77701;SDS011;66868;42.708;23.404;2023-04-10T03:14:15;43.78;;;21.55;;
77701;SDS011;66868;42.708;23.404;2023-04-10T03:16:40;36.90;;;19.42;;
77701;SDS011;66868;42.708;23.404;2023-04-10T03:19:06;30.27;;;16.98;;
77701;SDS011;66868;42.708;23.404;2023-04-10T03:21:31;27.35;;;15.95;;
77701;SDS011;66868;42.708;23.404;2023-04-10T03:23:57;25.30;;;15.05;;
77701;SDS011;66868;42.708;23.404;2023-04-10T03:26:22;18.67;;;13.30;;
77701;SDS011;66868;42.708;23.404;2023-04-10T03:28:48;22.20;;;12.82;;
77701;SDS011;66868;42.708;23.404;2023-04-10T03:31:13;18.80;;;13.50;;
77701;SDS011;66868;42.708;23.404;2023-04-10T03:33:39;18.52;;;12.82;;
77701;SDS011;66868;42.708;23.404;2023-04-10T03:36:05;25.05;;;15.48;;
77701;SDS011;66868;42.708;23.404;2023-04-10T03:38:30;20.08;;;14.02;;
77701;SDS011;66868;42.708;23.404;2023-04-10T03:40:56;20.83;;;14.27;;
77701;SDS011;66868;42.708;23.404;2023-04-10T03:43:21;19.05;;;13.40;;
77701;SDS011;66868;42.708;23.404;2023-04-10T03:45:46;19.77;;;13.45;;
77701;SDS011;66868;42.708;23.404;2023-04-10T03:48:12;29.98;;;17.55;;
77701;SDS011;66868;42.708;23.404;2023-04-10T03:50:37;40.47;;;21.70;;
77701;SDS011;66868;42.708;23.404;2023-04-10T03:53:03;46.22;;;23.63;;
77701;SDS011;66868;42.708;23.404;2023-04-10T03:55:29;43.05;;;23.13;;
77701;SDS011;66868;42.708;23.404;2023-04-10T03:57:54;35.90;;;20.00;;
77701;SDS011;66868;42.708;23.404;2023-04-10T04:00:20;36.95;;;19.67;;
77701;SDS011;66868;42.708;23.404;2023-04-10T04:02:46;32.47;;;18.58;;
77701;SDS011;66868;42.708;23.404;2023-04-10T04:05:12;31.27;;;18.08;;
77701;SDS011;66868;42.708;23.404;2023-04-10T04:07:37;25.00;;;17.10;;
77701;SDS011;66868;42.708;23.404;2023-04-10T04:10:02;24.40;;;14.98;;
77701;SDS011;66868;42.708;23.404;2023-04-10T04:12:28;24.02;;;16.27;;
77701;SDS011;66868;42.708;23.404;2023-04-10T04:14:54;30.35;;;17.63;;
77701;SDS011;66868;42.708;23.404;2023-04-10T04:17:19;25.95;;;16.77;;
77701;SDS011;66868;42.708;23.404;2023-04-10T04:19:45;22.15;;;14.85;;
77701;SDS011;66868;42.708;23.404;2023-04-10T04:22:11;20.35;;;13.02;;
77701;SDS011;66868;42.708;23.404;2023-04-10T04:24:37;23.38;;;12.90;;
77701;SDS011;66868;42.708;23.404;2023-04-10T04:27:02;18.23;;;12.82;;
77701;SDS011;66868;42.708;23.404;2023-04-10T04:29:27;19.77;;;12.43;;
77701;SDS011;66868;42.708;23.404;2023-04-10T04:31:53;22.95;;;14.10;;
77701;SDS011;66868;42.708;23.404;2023-04-10T04:34:18;20.52;;;13.90;;
77701;SDS011;66868;42.708;23.404;2023-04-10T04:36:44;18.77;;;13.73;;
77701;SDS011;66868;42.708;23.404;2023-04-10T04:39:09;22.38;;;14.20;;
77701;SDS011;66868;42.708;23.404;2023-04-10T04:41:35;18.88;;;13.15;;
77701;SDS011;66868;42.708;23.404;2023-04-10T04:44:00;18.15;;;12.23;;
77701;SDS011;66868;42.708;23.404;2023-04-10T04:46:26;18.13;;;13.30;;
77701;SDS011;66868;42.708;23.404;2023-04-10T04:48:52;17.58;;;13.40;;
77701;SDS011;66868;42.708;23.404;2023-04-10T04:51:17;17.08;;;12.15;;
77701;SDS011;66868;42.708;23.404;2023-04-10T04:53:42;17.98;;;13.55;;
77701;SDS011;66868;42.708;23.404;2023-04-10T04:56:08;17.85;;;13.15;;
77701;SDS011;66868;42.708;23.404;2023-04-10T04:58:33;19.13;;;14.93;;
77701;SDS011;66868;42.708;23.404;2023-04-10T05:00:59;19.02;;;14.35;;
77701;SDS011;66868;42.708;23.404;2023-04-10T05:03:24;19.95;;;15.57;;
77701;SDS011;66868;42.708;23.404;2023-04-10T05:05:52;40.15;;;23.50;;
77701;SDS011;66868;42.708;23.404;2023-04-10T05:08:18;45.65;;;26.10;;
77701;SDS011;66868;42.708;23.404;2023-04-10T05:10:43;38.90;;;24.73;;
77701;SDS011;66868;42.708;23.404;2023-04-10T05:13:09;33.95;;;22.52;;
77701;SDS011;66868;42.708;23.404;2023-04-10T05:15:34;29.88;;;18.38;;
77701;SDS011;66868;42.708;23.404;2023-04-10T05:18:00;24.45;;;17.13;;
77701;SDS011;66868;42.708;23.404;2023-04-10T05:20:25;27.90;;;17.90;;
77701;SDS011;66868;42.708;23.404;2023-04-10T05:22:51;23.35;;;15.40;;
77701;SDS011;66868;42.708;23.404;2023-04-10T05:25:17;20.83;;;11.77;;
77701;SDS011;66868;42.708;23.404;2023-04-10T05:27:42;14.30;;;11.10;;
77701;SDS011;66868;42.708;23.404;2023-04-10T05:30:08;15.18;;;11.75;;
77701;SDS011;66868;42.708;23.404;2023-04-10T05:32:33;15.45;;;10.85;;
77701;SDS011;66868;42.708;23.404;2023-04-10T05:34:59;16.17;;;11.95;;
77701;SDS011;66868;42.708;23.404;2023-04-10T05:37:24;14.70;;;11.40;;
77701;SDS011;66868;42.708;23.404;2023-04-10T05:39:50;19.98;;;12.02;;
77701;SDS011;66868;42.708;23.404;2023-04-10T05:42:15;18.08;;;12.43;;
77701;SDS011;66868;42.708;23.404;2023-04-10T05:44:40;18.20;;;12.27;;
77701;SDS011;66868;42.708;23.404;2023-04-10T05:47:06;17.13;;;12.48;;
77701;SDS011;66868;42.708;23.404;2023-04-10T05:49:32;18.92;;;12.82;;
77701;SDS011;66868;42.708;23.404;2023-04-10T05:51:57;21.27;;;13.48;;
77701;SDS011;66868;42.708;23.404;2023-04-10T05:54:23;24.80;;;13.35;;
77701;SDS011;66868;42.708;23.404;2023-04-10T05:56:48;19.88;;;12.82;;
77701;SDS011;66868;42.708;23.404;2023-04-10T05:59:13;19.52;;;12.02;;
77701;SDS011;66868;42.708;23.404;2023-04-10T06:01:39;17.35;;;13.40;;
77701;SDS011;66868;42.708;23.404;2023-04-10T06:04:05;16.85;;;11.60;;
77701;SDS011;66868;42.708;23.404;2023-04-10T06:06:31;17.20;;;10.43;;
77701;SDS011;66868;42.708;23.404;2023-04-10T06:08:57;19.35;;;11.80;;
77701;SDS011;66868;42.708;23.404;2023-04-10T06:11:23;13.57;;;10.70;;
77701;SDS011;66868;42.708;23.404;2023-04-10T06:13:48;13.82;;;10.30;;
77701;SDS011;66868;42.708;23.404;2023-04-10T06:16:13;12.98;;;9.82;;
77701;SDS011;66868;42.708;23.404;2023-04-10T06:18:40;16.77;;;10.68;;
77701;SDS011;66868;42.708;23.404;2023-04-10T06:21:06;15.75;;;10.32;;
77701;SDS011;66868;42.708;23.404;2023-04-10T06:23:31;22.23;;;12.63;;
77701;SDS011;66868;42.708;23.404;2023-04-10T06:25:57;22.38;;;12.95;;
77701;SDS011;66868;42.708;23.404;2023-04-10T06:28:22;22.20;;;14.02;;
77701;SDS011;66868;42.708;23.404;2023-04-10T06:30:47;21.92;;;13.07;;
77701;SDS011;66868;42.708;23.404;2023-04-10T06:33:13;17.70;;;12.70;;
77701;SDS011;66868;42.708;23.404;2023-04-10T06:35:38;22.77;;;12.70;;
77701;SDS011;66868;42.708;23.404;2023-04-10T06:38:04;23.33;;;12.95;;
77701;SDS011;66868;42.708;23.404;2023-04-10T06:40:30;11.85;;;10.30;;
77701;SDS011;66868;42.708;23.404;2023-04-10T06:42:57;14.55;;;10.98;;
77701;SDS011;66868;42.708;23.404;2023-04-10T06:45:23;13.93;;;10.18;;
77701;SDS011;66868;42.708;23.404;2023-04-10T06:47:48;19.73;;;10.43;;
77701;SDS011;66868;42.708;23.404;2023-04-10T06:50:14;18.27;;;10.55;;
77701;SDS011;66868;42.708;23.404;2023-04-10T06:52:39;17.27;;;10.57;;
77701;SDS011;66868;42.708;23.404;2023-04-10T06:55:05;15.70;;;10.27;;
77701;SDS011;66868;42.708;23.404;2023-04-10T06:57:31;13.80;;;8.98;;
77701;SDS011;66868;42.708;23.404;2023-04-10T06:59:56;13.15;;;9.60;;
77701;SDS011;66868;42.708;23.404;2023-04-10T07:02:21;15.68;;;10.52;;
77701;SDS011;66868;42.708;23.404;2023-04-10T07:04:47;16.73;;;11.45;;
77701;SDS011;66868;42.708;23.404;2023-04-10T07:07:12;16.27;;;11.55;;
77701;SDS011;66868;42.708;23.404;2023-04-10T07:09:39;22.40;;;12.98;;
77701;SDS011;66868;42.708;23.404;2023-04-10T07:12:05;21.38;;;12.38;;
77701;SDS011;66868;42.708;23.404;2023-04-10T07:14:31;18.27;;;12.48;;
77701;SDS011;66868;42.708;23.404;2023-04-10T07:16:58;17.98;;;10.07;;
77701;SDS011;66868;42.708;23.404;2023-04-10T07:19:23;13.43;;;10.57;;
77701;SDS011;66868;42.708;23.404;2023-04-10T07:21:48;9.88;;;8.75;;
77701;SDS011;66868;42.708;23.404;2023-04-10T07:24:17;12.75;;;10.05;;
77701;SDS011;66868;42.708;23.404;2023-04-10T07:26:43;15.88;;;11.20;;
77701;SDS011;66868;42.708;23.404;2023-04-10T07:29:09;11.00;;;9.75;;
77701;SDS011;66868;42.708;23.404;2023-04-10T07:31:35;26.50;;;9.40;;
77701;SDS011;66868;42.708;23.404;2023-04-10T07:34:01;13.40;;;9.43;;
77701;SDS011;66868;42.708;23.404;2023-04-10T07:36:26;19.58;;;10.77;;
77701;SDS011;66868;42.708;23.404;2023-04-10T07:38:52;10.57;;;9.50;;
77701;SDS011;66868;42.708;23.404;2023-04-10T07:41:18;12.88;;;9.98;;
77701;SDS011;66868;42.708;23.404;2023-04-10T07:43:44;11.68;;;9.93;;
77701;SDS011;66868;42.708;23.404;2023-04-10T07:46:10;10.57;;;9.48;;
77701;SDS011;66868;42.708;23.404;2023-04-10T07:48:36;19.65;;;9.68;;
77701;SDS011;66868;42.708;23.404;2023-04-10T07:51:01;15.50;;;10.98;;
77701;SDS011;66868;42.708;23.404;2023-04-10T07:53:26;17.95;;;9.57;;
77701;SDS011;66868;42.708;23.404;2023-04-10T07:55:52;15.85;;;11.05;;
77701;SDS011;66868;42.708;23.404;2023-04-10T07:58:17;15.55;;;10.15;;
77701;SDS011;66868;42.708;23.404;2023-04-10T08:00:43;11.57;;;10.45;;
77701;SDS011;66868;42.708;23.404;2023-04-10T08:03:09;13.80;;;11.10;;
77701;SDS011;66868;42.708;23.404;2023-04-10T08:05:35;18.70;;;11.85;;
77701;SDS011;66868;42.708;23.404;2023-04-10T08:08:01;14.77;;;11.07;;
77701;SDS011;66868;42.708;23.404;2023-04-10T08:10:26;16.27;;;10.85;;
77701;SDS011;66868;42.708;23.404;2023-04-10T08:12:51;21.17;;;11.18;;
77701;SDS011;66868;42.708;23.404;2023-04-10T08:15:17;16.10;;;10.68;;
77701;SDS011;66868;42.708;23.404;2023-04-10T08:17:42;16.13;;;10.40;;
77701;SDS011;66868;42.708;23.404;2023-04-10T08:20:08;12.65;;;10.05;;
77701;SDS011;66868;42.708;23.404;2023-04-10T08:22:34;15.82;;;10.10;;
77701;SDS011;66868;42.708;23.404;2023-04-10T08:25:03;12.70;;;10.15;;
77701;SDS011;66868;42.708;23.404;2023-04-10T08:27:29;13.30;;;9.23;;
77701;SDS011;66868;42.708;23.404;2023-04-10T08:29:54;11.25;;;9.45;;
77701;SDS011;66868;42.708;23.404;2023-04-10T08:32:20;10.73;;;8.68;;
77701;SDS011;66868;42.708;23.404;2023-04-10T08:34:46;11.65;;;8.93;;
77701;SDS011;66868;42.708;23.404;2023-04-10T08:37:11;9.88;;;8.88;;
77701;SDS011;66868;42.708;23.404;2023-04-10T08:39:39;13.57;;;9.35;;
77701;SDS011;66868;42.708;23.404;2023-04-10T08:42:05;9.45;;;8.50;;
77701;SDS011;66868;42.708;23.404;2023-04-10T08:44:31;8.52;;;7.82;;
77701;SDS011;66868;42.708;23.404;2023-04-10T08:46:57;11.32;;;8.48;;
77701;SDS011;66868;42.708;23.404;2023-04-10T08:52:03;16.40;;;9.63;;
77701;SDS011;66868;42.708;23.404;2023-04-10T08:54:37;11.65;;;9.43;;
77701;SDS011;66868;42.708;23.404;2023-04-10T08:57:03;12.57;;;8.75;;
77701;SDS011;66868;42.708;23.404;2023-04-10T08:59:31;14.40;;;8.90;;
77701;SDS011;66868;42.708;23.404;2023-04-10T09:01:57;9.57;;;8.68;;
77701;SDS011;66868;42.708;23.404;2023-04-10T09:04:23;23.02;;;9.90;;
77701;SDS011;66868;42.708;23.404;2023-04-10T09:06:49;20.55;;;8.88;;
77701;SDS011;66868;42.708;23.404;2023-04-10T09:09:15;8.07;;;7.38;;
77701;SDS011;66868;42.708;23.404;2023-04-10T09:14:23;22.60;;;7.93;;
77701;SDS011;66868;42.708;23.404;2023-04-10T09:16:50;8.20;;;6.72;;
77701;SDS011;66868;42.708;23.404;2023-04-10T09:19:28;13.98;;;8.48;;
77701;SDS011;66868;42.708;23.404;2023-04-10T09:21:55;8.48;;;7.60;;
77701;SDS011;66868;42.708;23.404;2023-04-10T09:24:21;8.25;;;7.55;;
77701;SDS011;66868;42.708;23.404;2023-04-10T09:26:47;15.23;;;8.00;;
77701;SDS011;66868;42.708;23.404;2023-04-10T09:29:13;8.38;;;7.60;;
77701;SDS011;66868;42.708;23.404;2023-04-10T09:31:40;8.93;;;8.07;;
77701;SDS011;66868;42.708;23.404;2023-04-10T09:36:43;7.82;;;7.22;;
77701;SDS011;66868;42.708;23.404;2023-04-10T09:39:19;7.85;;;7.15;;
77701;SDS011;66868;42.708;23.404;2023-04-10T09:41:48;12.95;;;8.65;;
77701;SDS011;66868;42.708;23.404;2023-04-10T09:46:58;8.02;;;7.22;;
77701;SDS011;66868;42.708;23.404;2023-04-10T09:49:45;8.25;;;6.93;;
77701;SDS011;66868;42.708;23.404;2023-04-10T09:54:55;7.50;;;6.90;;
77701;SDS011;66868;42.708;23.404;2023-04-10T09:57:22;9.50;;;7.57;;
77701;SDS011;66868;42.708;23.404;2023-04-10T09:59:49;8.00;;;7.30;;
77701;SDS011;66868;42.708;23.404;2023-04-10T10:02:20;7.50;;;6.80;;
77701;SDS011;66868;42.708;23.404;2023-04-10T10:04:49;7.60;;;7.03;;
77701;SDS011;66868;42.708;23.404;2023-04-10T10:07:15;8.20;;;7.50;;
77701;SDS011;66868;42.708;23.404;2023-04-10T10:09:43;8.20;;;7.47;;
77701;SDS011;66868;42.708;23.404;2023-04-10T10:12:10;7.50;;;6.90;;
77701;SDS011;66868;42.708;23.404;2023-04-10T10:17:23;8.32;;;7.47;;
77701;SDS011;66868;42.708;23.404;2023-04-10T10:19:58;14.65;;;7.05;;
77701;SDS011;66868;42.708;23.404;2023-04-10T10:22:29;7.82;;;7.07;;
77701;SDS011;66868;42.708;23.404;2023-04-10T10:24:56;7.60;;;7.03;;
77701;SDS011;66868;42.708;23.404;2023-04-10T10:27:32;8.55;;;7.30;;
77701;SDS011;66868;42.708;23.404;2023-04-10T10:30:04;7.97;;;7.38;;
77701;SDS011;66868;42.708;23.404;2023-04-10T10:32:33;8.80;;;7.50;;
77701;SDS011;66868;42.708;23.404;2023-04-10T10:34:59;10.68;;;8.10;;
77701;SDS011;66868;42.708;23.404;2023-04-10T10:37:28;8.77;;;7.88;;
77701;SDS011;66868;42.708;23.404;2023-04-10T10:45:15;7.70;;;7.03;;
77701;SDS011;66868;42.708;23.404;2023-04-10T10:47:46;7.80;;;7.10;;
77701;SDS011;66868;42.708;23.404;2023-04-10T10:50:17;8.18;;;7.43;;
77701;SDS011;66868;42.708;23.404;2023-04-10T10:52:43;7.40;;;6.88;;
77701;SDS011;66868;42.708;23.404;2023-04-10T10:57:55;10.13;;;9.10;;
77701;SDS011;66868;42.708;23.404;2023-04-10T11:00:23;7.28;;;6.68;;
77701;SDS011;66868;42.708;23.404;2023-04-10T11:13:35;7.70;;;7.00;;
77701;SDS011;66868;42.708;23.404;2023-04-10T11:16:03;10.23;;;7.38;;
77701;SDS011;66868;42.708;23.404;2023-04-10T11:23:38;7.13;;;6.63;;
77701;SDS011;66868;42.708;23.404;2023-04-10T11:28:59;7.57;;;6.93;;
77701;SDS011;66868;42.708;23.404;2023-04-10T11:31:25;8.00;;;7.47;;
77701;SDS011;66868;42.708;23.404;2023-04-10T11:36:23;7.65;;;6.72;;
77701;SDS011;66868;42.708;23.404;2023-04-10T11:41:32;7.60;;;6.80;;
77701;SDS011;66868;42.708;23.404;2023-04-10T11:43:59;6.75;;;6.25;;
77701;SDS011;66868;42.708;23.404;2023-04-10T11:46:26;7.22;;;6.72;;
77701;SDS011;66868;42.708;23.404;2023-04-10T11:48:53;7.13;;;6.50;;
77701;SDS011;66868;42.708;23.404;2023-04-10T11:51:24;7.30;;;5.60;;
77701;SDS011;66868;42.708;23.404;2023-04-10T11:56:37;6.28;;;5.78;;
77701;SDS011;66868;42.708;23.404;2023-04-10T11:59:04;7.35;;;6.85;;
77701;SDS011;66868;42.708;23.404;2023-04-10T12:01:43;8.05;;;6.82;;
77701;SDS011;66868;42.708;23.404;2023-04-10T12:04:19;9.57;;;8.52;;
77701;SDS011;66868;42.708;23.404;2023-04-10T12:06:49;9.13;;;8.07;;
77701;SDS011;66868;42.708;23.404;2023-04-10T12:09:20;10.45;;;9.43;;
77701;SDS011;66868;42.708;23.404;2023-04-10T12:11:53;10.80;;;8.57;;
77701;SDS011;66868;42.708;23.404;2023-04-10T12:14:27;8.68;;;7.88;;
77701;SDS011;66868;42.708;23.404;2023-04-10T12:16:55;8.10;;;7.28;;
77701;SDS011;66868;42.708;23.404;2023-04-10T12:19:20;9.55;;;8.60;;
77701;SDS011;66868;42.708;23.404;2023-04-10T12:21:47;15.10;;;9.73;;
77701;SDS011;66868;42.708;23.404;2023-04-10T12:24:15;12.25;;;10.95;;
77701;SDS011;66868;42.708;23.404;2023-04-10T12:29:41;14.15;;;10.32;;
77701;SDS011;66868;42.708;23.404;2023-04-10T12:32:07;8.35;;;7.55;;
77701;SDS011;66868;42.708;23.404;2023-04-10T12:34:33;6.30;;;5.80;;
77701;SDS011;66868;42.708;23.404;2023-04-10T12:36:58;8.35;;;6.70;;
77701;SDS011;66868;42.708;23.404;2023-04-10T12:39:24;6.07;;;5.68;;
77701;SDS011;66868;42.708;23.404;2023-04-10T12:41:50;19.63;;;12.32;;
77701;SDS011;66868;42.708;23.404;2023-04-10T12:44:16;18.67;;;11.00;;
77701;SDS011;66868;42.708;23.404;2023-04-10T12:46:43;10.07;;;8.50;;
77701;SDS011;66868;42.708;23.404;2023-04-10T12:49:13;9.50;;;8.52;;
77701;SDS011;66868;42.708;23.404;2023-04-10T12:54:10;8.10;;;7.45;;
77701;SDS011;66868;42.708;23.404;2023-04-10T12:57:05;8.68;;;7.88;;
77701;SDS011;66868;42.708;23.404;2023-04-10T12:59:30;7.22;;;6.63;;
77701;SDS011;66868;42.708;23.404;2023-04-10T13:01:56;8.00;;;7.20;;
77701;SDS011;66868;42.708;23.404;2023-04-10T13:04:22;10.27;;;9.27;;
77701;SDS011;66868;42.708;23.404;2023-04-10T13:06:47;7.78;;;7.15;;
77701;SDS011;66868;42.708;23.404;2023-04-10T13:09:16;8.43;;;7.70;;
77701;SDS011;66868;42.708;23.404;2023-04-10T13:11:42;7.82;;;7.22;;
77701;SDS011;66868;42.708;23.404;2023-04-10T13:14:07;5.72;;;5.20;;
77701;SDS011;66868;42.708;23.404;2023-04-10T13:16:33;8.00;;;7.50;;
77701;SDS011;66868;42.708;23.404;2023-04-10T13:18:59;6.30;;;5.90;;
77701;SDS011;66868;42.708;23.404;2023-04-10T13:21:25;10.90;;;9.90;;
77701;SDS011;66868;42.708;23.404;2023-04-10T13:23:52;6.60;;;6.20;;
77701;SDS011;66868;42.708;23.404;2023-04-10T13:26:18;8.60;;;7.85;;
77701;SDS011;66868;42.708;23.404;2023-04-10T13:28:44;9.23;;;8.43;;
77701;SDS011;66868;42.708;23.404;2023-04-10T13:31:10;8.73;;;8.02;;
77701;SDS011;66868;42.708;23.404;2023-04-10T13:33:35;8.10;;;7.45;;
77701;SDS011;66868;42.708;23.404;2023-04-10T13:36:00;9.13;;;8.43;;
77701;SDS011;66868;42.708;23.404;2023-04-10T13:38:26;8.55;;;7.85;;
77701;SDS011;66868;42.708;23.404;2023-04-10T13:40:51;9.02;;;8.20;;
77701;SDS011;66868;42.708;23.404;2023-04-10T13:43:17;10.07;;;9.38;;
77701;SDS011;66868;42.708;23.404;2023-04-10T13:45:42;11.00;;;10.05;;
77701;SDS011;66868;42.708;23.404;2023-04-10T13:48:08;12.05;;;10.80;;
77701;SDS011;66868;42.708;23.404;2023-04-10T13:50:33;9.27;;;8.68;;
77701;SDS011;66868;42.708;23.404;2023-04-10T13:52:59;13.50;;;12.20;;
77701;SDS011;66868;42.708;23.404;2023-04-10T13:55:24;7.97;;;7.38;;
77701;SDS011;66868;42.708;23.404;2023-04-10T13:57:50;8.15;;;7.65;;
77701;SDS011;66868;42.708;23.404;2023-04-10T14:00:16;9.82;;;7.80;;
77701;SDS011;66868;42.708;23.404;2023-04-10T14:02:41;9.77;;;8.75;;
77701;SDS011;66868;42.708;23.404;2023-04-10T14:05:07;7.88;;;7.38;;
77701;SDS011;66868;42.708;23.404;2023-04-10T14:07:33;7.97;;;7.32;;
77701;SDS011;66868;42.708;23.404;2023-04-10T14:09:59;7.55;;;7.05;;
77701;SDS011;66868;42.708;23.404;2023-04-10T14:12:24;7.03;;;6.57;;
77701;SDS011;66868;42.708;23.404;2023-04-10T14:14:50;6.90;;;5.95;;
77701;SDS011;66868;42.708;23.404;2023-04-10T14:17:15;5.47;;;5.25;;
77701;SDS011;66868;42.708;23.404;2023-04-10T14:19:41;5.95;;;5.55;;
77701;SDS011;66868;42.708;23.404;2023-04-10T14:22:06;6.70;;;5.90;;
77701;SDS011;66868;42.708;23.404;2023-04-10T14:24:32;8.40;;;7.70;;
77701;SDS011;66868;42.708;23.404;2023-04-10T14:26:57;8.93;;;8.13;;
77701;SDS011;66868;42.708;23.404;2023-04-10T14:29:25;26.65;;;13.85;;
77701;SDS011;66868;42.708;23.404;2023-04-10T14:31:51;11.77;;;9.05;;
77701;SDS011;66868;42.708;23.404;2023-04-10T14:34:16;8.77;;;7.80;;
77701;SDS011;66868;42.708;23.404;2023-04-10T14:36:42;10.30;;;8.10;;
77701;SDS011;66868;42.708;23.404;2023-04-10T14:39:08;8.90;;;7.82;;
77701;SDS011;66868;42.708;23.404;2023-04-10T14:41:33;7.45;;;6.78;;
77701;SDS011;66868;42.708;23.404;2023-04-10T14:43:58;5.53;;;5.15;;
77701;SDS011;66868;42.708;23.404;2023-04-10T14:46:24;6.45;;;5.90;;
77701;SDS011;66868;42.708;23.404;2023-04-10T14:48:49;6.93;;;6.32;;
77701;SDS011;66868;42.708;23.404;2023-04-10T14:51:18;11.63;;;8.90;;
77701;SDS011;66868;42.708;23.404;2023-04-10T14:53:43;11.68;;;10.48;;
77701;SDS011;66868;42.708;23.404;2023-04-10T14:56:13;12.10;;;9.60;;
77701;SDS011;66868;42.708;23.404;2023-04-10T14:58:39;19.83;;;8.38;;
77701;SDS011;66868;42.708;23.404;2023-04-10T15:01:14;7.45;;;6.68;;
77701;SDS011;66868;42.708;23.404;2023-04-10T15:03:40;7.10;;;6.50;;
77701;SDS011;66868;42.708;23.404;2023-04-10T15:06:06;13.10;;;10.02;;
77701;SDS011;66868;42.708;23.404;2023-04-10T15:08:31;11.95;;;9.55;;
77701;SDS011;66868;42.708;23.404;2023-04-10T15:10:57;14.73;;;11.02;;
77701;SDS011;66868;42.708;23.404;2023-04-10T15:13:22;9.10;;;8.27;;
77701;SDS011;66868;42.708;23.404;2023-04-10T15:15:47;16.20;;;12.82;;
77701;SDS011;66868;42.708;23.404;2023-04-10T15:18:13;8.35;;;7.65;;
77701;SDS011;66868;42.708;23.404;2023-04-10T15:20:39;11.20;;;9.55;;
77701;SDS011;66868;42.708;23.404;2023-04-10T15:23:05;14.10;;;12.27;;
77701;SDS011;66868;42.708;23.404;2023-04-10T15:25:31;15.52;;;12.23;;
77701;SDS011;66868;42.708;23.404;2023-04-10T15:27:57;10.07;;;9.18;;